createdAt,value
2022-08-17T00:01:51.879Z,99238.22
2022-08-17T00:04:25.991Z,99236.66
2022-08-17T00:07:01.827Z,99237.54
2022-08-17T00:09:44.885Z,99234.61
2022-08-17T00:12:42.083Z,99237.59
2022-08-17T00:15:15.984Z,99237.42
2022-08-17T00:19:00.394Z,99239.04
2022-08-17T00:21:10.582Z,99240.36
2022-08-17T00:23:49.522Z,99238.76
2022-08-17T00:26:43.442Z,99238.99
2022-08-17T00:29:19.861Z,99237.97
2022-08-17T00:31:53.266Z,99238.96
2022-08-17T00:34:32.403Z,99236.10
2022-08-17T00:37:03.970Z,99236.41
2022-08-17T00:39:34.024Z,99237.70
2022-08-17T00:42:15.185Z,99236.73
2022-08-17T00:44:49.508Z,99237.35
2022-08-17T00:47:16.997Z,99234.35
2022-08-17T00:49:53.676Z,99232.45
2022-08-17T00:52:27.191Z,99232.48
2022-08-17T00:55:00.937Z,99233.69
2022-08-17T00:57:40.862Z,99230.90
2022-08-17T01:00:26.026Z,99231.75
2022-08-17T01:03:11.941Z,99233.61
2022-08-17T01:05:43.670Z,99230.70
2022-08-17T01:08:17.686Z,99226.67
2022-08-17T01:11:02.016Z,99229.16
2022-08-17T01:13:57.985Z,99221.92
2022-08-17T01:16:52.145Z,99217.17
2022-08-17T01:19:33.893Z,99221.86
2022-08-17T01:22:13.804Z,99216.84
2022-08-17T01:24:54.554Z,99221.64
2022-08-17T01:27:31.107Z,99224.20
2022-08-17T01:30:57.975Z,99224.58
2022-08-17T01:33:03.998Z,99226.13
2022-08-17T01:35:33.404Z,99227.55
2022-08-17T01:38:06.289Z,99226.73
2022-08-17T01:40:57.676Z,99230.38
2022-08-17T01:43:39.544Z,99230.69
2022-08-17T01:46:13.976Z,99228.85
2022-08-17T01:48:46.924Z,99231.19
2022-08-17T01:51:35.419Z,99231.83
2022-08-17T01:54:32.158Z,99231.42
2022-08-17T01:56:59.334Z,99234.89
2022-08-17T01:59:29.758Z,99235.91
2022-08-17T02:02:03.175Z,99236.54
2022-08-17T02:04:37.167Z,99239.17
2022-08-17T02:07:12.158Z,99239.36
2022-08-17T02:09:43.784Z,99238.87
2022-08-17T02:12:39.362Z,99240.98
2022-08-17T02:15:28.774Z,99240.48
2022-08-17T02:18:04.260Z,99237.17
2022-08-17T02:20:50.610Z,99236.52
2022-08-17T02:23:22.961Z,99235.57
2022-08-17T02:26:25.551Z,99236.11
2022-08-17T02:29:01.738Z,99236.00
2022-08-17T02:31:37.578Z,99235.61
2022-08-17T02:34:07.971Z,99235.70
2022-08-17T02:36:42.949Z,99236.71
2022-08-17T02:39:32.643Z,99235.03
2022-08-17T02:42:09.676Z,99230.45
2022-08-17T02:45:03.678Z,99229.59
2022-08-17T02:47:47.173Z,99228.50
2022-08-17T02:50:26.810Z,99226.73
2022-08-17T02:53:02.885Z,99228.14
2022-08-17T02:55:46.568Z,99230.36
2022-08-17T02:58:17.638Z,99230.56
2022-08-17T03:01:10.447Z,99233.25
2022-08-17T03:03:52.445Z,99238.20
2022-08-17T03:06:31.320Z,99235.38
2022-08-17T03:09:18.798Z,99243.25
2022-08-17T03:11:51.487Z,99246.24
2022-08-17T03:14:32.129Z,99249.98
2022-08-17T03:17:10.892Z,99244.91
2022-08-17T03:19:43.277Z,99247.88
2022-08-17T03:22:35.877Z,99246.78
2022-08-17T03:25:10.574Z,99248.59
2022-08-17T03:27:44.672Z,99247.96
2022-08-17T03:30:22.192Z,99243.27
2022-08-17T03:32:56.679Z,99247.45
2022-08-17T03:35:29.830Z,99250.89
2022-08-17T03:38:26.316Z,99254.61
2022-08-17T03:40:59.744Z,99251.09
2022-08-17T03:43:33.152Z,99249.86
2022-08-17T03:46:32.457Z,99252.35
2022-08-17T03:49:29.769Z,99255.00
2022-08-17T03:52:21.262Z,99253.45
2022-08-17T03:55:10.076Z,99255.64
2022-08-17T03:57:40.220Z,99252.09
2022-08-17T04:00:07.876Z,99253.19
2022-08-17T04:02:51.555Z,99254.88
2022-08-17T04:05:35.607Z,99257.74
2022-08-17T04:08:15.756Z,99256.63
2022-08-17T04:10:51.593Z,99255.16
2022-08-17T04:13:25.587Z,99255.81
2022-08-17T04:15:58.788Z,99258.14
2022-08-17T04:18:29.008Z,99260.88
2022-08-17T04:20:56.311Z,99262.42
2022-08-17T04:23:33.298Z,99264.04
2022-08-17T04:26:11.826Z,99261.91
2022-08-17T04:29:54.779Z,99263.94
2022-08-17T04:33:04.769Z,99264.51
2022-08-17T04:35:36.931Z,99264.42
2022-08-17T04:38:09.822Z,99263.72
2022-08-17T04:41:19.030Z,99263.23
2022-08-17T04:43:57.978Z,99265.42
2022-08-17T04:46:41.043Z,99264.15
2022-08-17T04:49:55.274Z,99261.91
2022-08-17T04:52:43.336Z,99264.77
2022-08-17T04:55:24.141Z,99264.52
2022-08-17T04:57:54.535Z,99264.17
2022-08-17T05:00:27.820Z,99264.34
2022-08-17T05:03:06.191Z,99263.05
2022-08-17T05:05:49.373Z,99266.63
2022-08-17T05:08:48.290Z,99270.40
2022-08-17T05:11:21.658Z,99270.61
2022-08-17T05:14:09.153Z,99272.74
2022-08-17T05:16:45.115Z,99271.13
2022-08-17T05:19:26.953Z,99269.00
2022-08-17T05:22:14.806Z,99269.66
2022-08-17T05:24:53.802Z,99271.27
2022-08-17T05:27:35.471Z,99272.36
2022-08-17T05:30:06.698Z,99271.95
2022-08-17T05:32:40.327Z,99271.06
2022-08-17T05:35:12.909Z,99272.16
2022-08-17T05:37:40.443Z,99270.05
2022-08-17T05:40:07.977Z,99270.35
2022-08-17T05:42:37.786Z,99266.23
2022-08-17T05:45:32.142Z,99268.49
2022-08-17T05:48:18.651Z,99267.51
2022-08-17T05:51:13.552Z,99268.98
2022-08-17T05:53:52.481Z,99273.29
2022-08-17T05:56:43.580Z,99280.83
2022-08-17T05:59:37.974Z,99280.64
2022-08-17T06:03:20.320Z,99283.58
2022-08-17T06:06:27.259Z,99284.24
2022-08-17T06:09:14.827Z,99286.23
2022-08-17T06:12:05.390Z,99288.55
2022-08-17T06:14:45.207Z,99292.77
2022-08-17T06:17:21.600Z,99290.83
2022-08-17T06:20:02.382Z,99289.41
2022-08-17T06:22:44.373Z,99294.82
2022-08-17T06:25:23.321Z,99298.14
2022-08-17T06:27:56.601Z,99305.50
2022-08-17T06:30:27.835Z,99308.54
2022-08-17T06:33:23.453Z,99309.56
2022-08-17T06:36:15.799Z,99308.29
2022-08-17T06:39:05.787Z,99313.53
2022-08-17T06:42:02.474Z,99320.27
2022-08-17T06:44:52.052Z,99319.72
2022-08-17T06:47:35.778Z,99321.09
2022-08-17T06:50:37.199Z,99323.46
2022-08-17T06:53:29.792Z,99330.94
2022-08-17T06:56:53.919Z,99329.14
2022-08-17T06:59:54.204Z,99335.17
2022-08-17T07:02:52.536Z,99336.99
2022-08-17T07:05:36.246Z,99334.70
2022-08-17T07:08:35.199Z,99330.40
2022-08-17T07:11:15.061Z,99327.55
2022-08-17T07:13:51.736Z,99328.16
2022-08-17T07:16:33.660Z,99330.04
2022-08-17T07:19:26.103Z,99329.27
2022-08-17T07:22:17.070Z,99331.28
2022-08-17T07:25:02.479Z,99330.39
2022-08-17T07:27:45.450Z,99327.11
2022-08-17T07:30:55.295Z,99325.51
2022-08-17T07:33:39.112Z,99319.96
2022-08-17T07:36:35.838Z,99316.00
2022-08-17T07:39:11.262Z,99318.92
2022-08-17T07:41:57.852Z,99320.82
2022-08-17T07:44:32.091Z,99320.34
2022-08-17T07:47:35.006Z,99323.80
2022-08-17T07:50:26.992Z,99328.07
2022-08-17T07:53:26.766Z,99330.29
2022-08-17T08:01:22.070Z,99332.78
2022-08-17T08:05:08.828Z,99331.72
2022-08-17T08:08:27.264Z,99329.44
2022-08-17T08:11:33.138Z,99332.06
2022-08-17T08:14:28.633Z,99332.10
2022-08-17T08:17:09.322Z,99333.20
2022-08-17T08:19:41.395Z,99336.58
2022-08-17T08:22:35.895Z,99332.67
2022-08-17T08:25:14.683Z,99331.56
2022-08-17T08:27:45.004Z,99336.45
2022-08-17T08:30:29.990Z,99335.22
2022-08-17T08:33:55.925Z,99335.92
2022-08-17T08:37:15.934Z,99336.83
2022-08-17T08:40:01.823Z,99333.81
2022-08-17T08:42:52.319Z,99336.30
2022-08-17T08:45:37.654Z,99334.69
2022-08-17T08:48:56.603Z,99333.06
2022-08-17T08:51:38.072Z,99340.06
2022-08-17T08:54:34.955Z,99340.11
2022-08-17T08:57:26.817Z,99337.94
2022-08-17T09:00:17.456Z,99333.86
2022-08-17T09:03:07.503Z,99338.65
2022-08-17T09:06:37.359Z,99336.13
2022-08-17T09:09:41.986Z,99338.92
2022-08-17T09:12:52.179Z,99336.42
2022-08-17T09:15:35.416Z,99329.46
2022-08-17T09:19:02.280Z,99332.41
2022-08-17T09:21:02.902Z,99335.77
2022-08-17T09:23:59.536Z,99334.25
2022-08-17T09:26:39.692Z,99332.86
2022-08-17T09:29:13.803Z,99330.21
2022-08-17T09:31:52.898Z,99331.70
2022-08-17T09:34:31.948Z,99328.79
2022-08-17T09:37:15.635Z,99324.62
2022-08-17T09:39:52.996Z,99326.85
2022-08-17T09:42:51.494Z,99316.27
2022-08-17T09:45:50.350Z,99320.05
2022-08-17T09:48:25.280Z,99317.59
2022-08-17T09:51:06.548Z,99316.59
2022-08-17T09:53:37.674Z,99316.47
2022-08-17T09:56:56.520Z,99311.88
2022-08-17T10:00:19.094Z,99309.06
2022-08-17T10:03:02.543Z,99307.55
2022-08-17T10:05:48.725Z,99307.26
2022-08-17T10:08:33.465Z,99310.80
2022-08-17T10:11:16.840Z,99314.27
2022-08-17T10:14:02.901Z,99312.34
2022-08-17T10:17:06.806Z,99311.42
2022-08-17T10:20:01.449Z,99310.86
2022-08-17T10:23:03.171Z,99304.09
2022-08-17T10:25:55.004Z,99304.66
2022-08-17T10:28:31.151Z,99302.52
2022-08-17T10:31:33.325Z,99296.02
2022-08-17T10:34:18.795Z,99297.97
2022-08-17T10:36:54.498Z,99293.91
2022-08-17T10:39:53.757Z,99294.61
2022-08-17T10:42:34.892Z,99295.36
2022-08-17T10:45:06.700Z,99299.48
2022-08-17T10:48:07.192Z,99299.91
2022-08-17T10:50:53.291Z,99307.07
2022-08-17T10:53:32.556Z,99306.63
2022-08-17T10:56:18.160Z,99298.36
2022-08-17T10:58:57.640Z,99299.32
2022-08-17T11:01:33.848Z,99298.74
2022-08-17T11:04:26.970Z,99297.07
2022-08-17T11:07:18.286Z,99290.70
2022-08-17T11:10:16.245Z,99292.45
2022-08-17T11:13:05.701Z,99292.67
2022-08-17T11:16:10.229Z,99293.73
2022-08-17T11:19:11.908Z,99291.66
2022-08-17T11:22:05.627Z,99290.92
2022-08-17T11:24:47.422Z,99293.39
2022-08-17T11:27:27.211Z,99289.23
2022-08-17T11:30:12.434Z,99288.21
2022-08-17T11:32:53.054Z,99285.14
2022-08-17T11:35:22.796Z,99286.52
2022-08-17T11:38:16.712Z,99279.27
2022-08-17T11:41:11.810Z,99274.16
2022-08-17T11:44:03.631Z,99270.41
2022-08-17T11:47:16.962Z,99272.58
2022-08-17T11:50:12.507Z,99271.79
2022-08-17T11:52:55.457Z,99269.88
2022-08-17T11:55:38.536Z,99266.70
2022-08-17T11:58:45.899Z,99258.94
2022-08-17T12:01:56.203Z,99261.20
2022-08-17T12:04:31.045Z,99262.20
2022-08-17T12:07:05.416Z,99263.56
2022-08-17T12:09:40.192Z,99261.48
2022-08-17T12:12:29.658Z,99262.59
2022-08-17T12:15:10.037Z,99265.55
2022-08-17T12:17:42.713Z,99264.38
2022-08-17T12:20:27.332Z,99260.55
2022-08-17T12:23:15.385Z,99259.73
2022-08-17T12:25:51.550Z,99260.86
2022-08-17T12:28:32.271Z,99264.13
2022-08-17T12:31:08.488Z,99269.14
2022-08-17T12:33:44.085Z,99267.15
2022-08-17T12:36:18.805Z,99267.95
2022-08-17T12:39:21.173Z,99265.61
2022-08-17T12:42:32.871Z,99270.48
2022-08-17T12:45:23.540Z,99264.30
2022-08-17T12:48:07.383Z,99259.12
2022-08-17T12:50:44.377Z,99252.13
2022-08-17T12:53:35.546Z,99248.94
2022-08-17T12:56:10.246Z,99244.86
2022-08-17T12:58:48.043Z,99245.27
2022-08-17T13:01:17.163Z,99246.15
2022-08-17T13:03:51.980Z,99242.47
2022-08-17T13:06:29.731Z,99245.39
2022-08-17T13:09:12.117Z,99241.78
2022-08-17T13:11:55.389Z,99243.14
2022-08-17T13:14:26.074Z,99239.46
2022-08-17T13:16:59.073Z,99237.28
2022-08-17T13:19:40.910Z,99234.71
2022-08-17T13:22:12.173Z,99240.05
2022-08-17T13:25:03.471Z,99238.16
2022-08-17T13:27:34.942Z,99238.41
2022-08-17T13:30:07.502Z,99239.02
2022-08-17T13:32:40.450Z,99239.05
2022-08-17T13:35:40.939Z,99246.00
2022-08-17T13:38:37.127Z,99245.75
2022-08-17T13:41:05.893Z,99240.16
2022-08-17T13:43:44.534Z,99239.86
2022-08-17T13:46:28.517Z,99236.96
2022-08-17T13:49:04.254Z,99229.89
2022-08-17T13:51:35.226Z,99231.75
2022-08-17T13:54:06.290Z,99232.11
2022-08-17T13:56:55.607Z,99235.81
2022-08-17T13:59:54.992Z,99237.07
2022-08-17T14:02:28.370Z,99244.13
2022-08-17T14:04:59.993Z,99242.81
2022-08-17T14:07:33.330Z,99241.55
2022-08-17T14:10:12.033Z,99238.80
2022-08-17T14:12:44.371Z,99243.23
2022-08-17T14:15:14.904Z,99243.14
2022-08-17T14:17:42.070Z,99238.79
2022-08-17T14:20:12.991Z,99233.93
2022-08-17T14:22:50.576Z,99234.45
2022-08-17T14:25:21.516Z,99242.12
2022-08-17T14:27:52.852Z,99238.06
2022-08-17T14:30:27.003Z,99240.41
2022-08-17T14:32:58.145Z,99242.34
2022-08-17T14:35:30.337Z,99239.84
2022-08-17T14:38:05.740Z,99239.98
2022-08-17T14:40:34.222Z,99236.88
2022-08-17T14:43:11.058Z,99235.96
2022-08-17T14:45:41.925Z,99239.05
2022-08-17T14:48:11.008Z,99232.02
2022-08-17T14:50:41.642Z,99232.13
2022-08-17T14:53:13.077Z,99231.95
2022-08-17T14:55:42.009Z,99231.09
2022-08-17T14:58:09.349Z,99234.11
2022-08-17T15:00:40.959Z,99230.48
2022-08-17T15:03:08.025Z,99234.77
2022-08-17T15:05:36.811Z,99242.45
2022-08-17T15:08:05.708Z,99244.21
2022-08-17T15:10:37.121Z,99243.52
2022-08-17T15:13:21.881Z,99241.18
2022-08-17T15:15:49.455Z,99235.30
2022-08-17T15:18:16.980Z,99235.83
2022-08-17T15:20:44.750Z,99229.67
2022-08-17T15:23:14.960Z,99227.36
2022-08-17T15:25:43.285Z,99238.86
2022-08-17T15:28:22.316Z,99239.69
2022-08-17T15:30:56.957Z,99246.02
2022-08-17T15:33:34.930Z,99249.57
2022-08-17T15:36:06.492Z,99256.66
2022-08-17T15:38:38.979Z,99258.90
2022-08-17T15:41:14.634Z,99257.73
2022-08-17T15:43:42.443Z,99257.60
2022-08-17T15:46:14.002Z,99258.16
2022-08-17T15:48:42.899Z,99252.77
2022-08-17T15:51:21.181Z,99252.46
2022-08-17T15:53:51.419Z,99254.80
2022-08-17T15:56:19.462Z,99245.59
2022-08-17T15:58:48.592Z,99240.94
2022-08-17T16:01:41.876Z,99238.05
2022-08-17T16:04:29.701Z,99230.25
2022-08-17T16:07:02.016Z,99221.46
2022-08-17T16:09:31.022Z,99224.64
2022-08-17T16:12:17.926Z,99223.88
2022-08-17T16:14:46.608Z,99228.08
2022-08-17T16:17:38.286Z,99225.14
2022-08-17T16:20:04.745Z,99230.71
2022-08-17T16:22:38.197Z,99230.35
2022-08-17T16:25:09.955Z,99233.47
2022-08-17T16:27:38.845Z,99235.53
2022-08-17T16:30:07.215Z,99234.02
2022-08-17T16:32:35.755Z,99233.00
2022-08-17T16:35:11.714Z,99228.79
2022-08-17T16:37:39.973Z,99226.33
2022-08-17T16:40:35.761Z,99222.63
2022-08-17T16:43:10.983Z,99224.63
2022-08-17T16:45:39.881Z,99225.90
2022-08-17T16:48:11.418Z,99229.20
2022-08-17T16:50:59.968Z,99230.70
2022-08-17T16:53:31.643Z,99230.74
2022-08-17T16:55:58.724Z,99234.27
2022-08-17T16:58:28.704Z,99231.56
2022-08-17T17:00:59.034Z,99233.77
2022-08-17T17:03:30.083Z,99235.91
2022-08-17T17:06:22.146Z,99241.02
2022-08-17T17:09:03.177Z,99242.43
2022-08-17T17:11:47.216Z,99240.02
2022-08-17T17:14:24.122Z,99242.58
2022-08-17T17:17:13.553Z,99242.47
2022-08-17T17:19:49.225Z,99236.02
2022-08-17T17:22:47.689Z,99231.34
2022-08-17T17:25:26.903Z,99226.27
2022-08-17T17:28:10.510Z,99222.64
2022-08-17T17:31:23.575Z,99227.14
2022-08-17T17:33:55.161Z,99221.21
2022-08-17T17:37:05.800Z,99216.58
2022-08-17T17:39:51.073Z,99215.30
2022-08-17T17:42:28.176Z,99214.46
2022-08-17T17:50:21.205Z,99229.03
2022-08-17T17:53:17.781Z,99231.98
2022-08-17T17:55:59.376Z,99234.63
2022-08-17T17:58:31.769Z,99237.95
2022-08-17T18:01:22.495Z,99241.52
2022-08-17T18:04:17.708Z,99245.25
2022-08-17T18:07:09.972Z,99252.62
2022-08-17T18:10:03.044Z,99251.82
2022-08-17T18:12:45.328Z,99252.18
2022-08-17T18:15:39.393Z,99258.09
2022-08-17T18:18:16.920Z,99258.31
2022-08-17T18:20:55.769Z,99256.66
2022-08-17T18:23:28.658Z,99261.33
2022-08-17T18:26:01.950Z,99263.61
2022-08-17T18:28:38.545Z,99261.48
2022-08-17T18:31:22.961Z,99263.23
2022-08-17T18:37:36.115Z,99261.54
2022-08-17T18:41:03.156Z,99259.88
2022-08-17T18:43:53.356Z,99261.69
2022-08-17T18:46:40.265Z,99269.23
2022-08-17T18:49:33.427Z,99269.91
2022-08-17T18:52:29.975Z,99272.02
2022-08-17T18:54:57.539Z,99269.02
2022-08-17T18:57:32.524Z,99267.24
2022-08-17T19:00:01.506Z,99272.10
2022-08-17T19:02:44.620Z,99273.28
2022-08-17T19:05:40.902Z,99273.13
2022-08-17T19:08:29.075Z,99281.21
2022-08-17T19:11:09.779Z,99283.66
2022-08-17T19:13:51.802Z,99281.80
2022-08-17T19:16:32.033Z,99280.65
2022-08-17T19:19:38.383Z,99285.14
2022-08-17T19:23:02.694Z,99284.34
2022-08-17T19:25:45.059Z,99284.64
2022-08-17T19:28:28.212Z,99290.29
2022-08-17T19:31:31.517Z,99285.09
2022-08-17T19:34:48.978Z,99283.27
2022-08-17T19:38:18.863Z,99287.33
2022-08-17T19:41:12.973Z,99282.92
2022-08-17T19:44:09.952Z,99277.95
2022-08-17T19:48:00.528Z,99280.45
2022-08-17T19:50:55.451Z,99278.06
2022-08-17T19:54:03.684Z,99277.77
2022-08-17T19:57:15.860Z,99281.79
2022-08-17T19:59:51.944Z,99276.98
2022-08-17T20:02:41.294Z,99275.71
2022-08-17T20:05:15.172Z,99275.80
2022-08-17T20:07:57.350Z,99273.28
2022-08-17T20:11:20.738Z,99276.70
2022-08-17T20:14:34.648Z,99270.75
2022-08-17T20:18:11.909Z,99269.79
2022-08-17T20:21:19.953Z,99269.36
2022-08-17T20:24:52.280Z,99266.54
2022-08-17T20:28:22.537Z,99259.36
2022-08-17T20:31:03.063Z,99263.73
2022-08-17T20:33:50.168Z,99260.70
2022-08-17T20:37:07.308Z,99260.47
2022-08-17T20:40:31.473Z,99259.63
2022-08-17T20:43:39.476Z,99262.44
2022-08-17T20:46:38.288Z,99265.11
2022-08-17T20:50:36.444Z,99273.70
2022-08-17T20:53:50.550Z,99269.45
2022-08-17T20:56:49.083Z,99267.34
2022-08-17T20:59:41.249Z,99271.23
2022-08-17T21:03:18.632Z,99271.20
2022-08-17T21:06:30.388Z,99268.17
2022-08-17T21:09:17.605Z,99267.04
2022-08-17T21:12:12.552Z,99263.41
2022-08-17T21:15:24.582Z,99261.63
2022-08-17T21:18:29.760Z,99259.10
2022-08-17T21:21:37.477Z,99255.45
2022-08-17T21:24:37.105Z,99257.52
2022-08-17T21:27:45.972Z,99261.44
2022-08-17T21:30:27.842Z,99259.88
2022-08-17T21:33:36.940Z,99258.18
2022-08-17T21:36:15.618Z,99259.05
2022-08-17T21:39:10.441Z,99263.95
2022-08-17T21:42:01.023Z,99261.14
2022-08-17T21:45:23.241Z,99261.37
2022-08-17T21:48:22.483Z,99264.50
2022-08-17T21:51:28.533Z,99267.22
2022-08-17T21:54:23.587Z,99272.26
2022-08-17T21:56:51.496Z,99272.11
2022-08-17T21:59:32.756Z,99272.26
2022-08-17T22:02:05.574Z,99273.27
2022-08-17T22:04:36.406Z,99271.42
2022-08-17T22:07:05.190Z,99271.61
2022-08-17T22:09:45.610Z,99277.25
2022-08-17T22:12:17.173Z,99276.10
2022-08-17T22:15:00.004Z,99275.40
2022-08-17T22:17:35.965Z,99275.70
2022-08-17T22:20:18.791Z,99279.50
2022-08-17T22:23:04.478Z,99282.52
2022-08-17T22:25:35.677Z,99283.41
2022-08-17T22:28:11.009Z,99284.72
2022-08-17T22:31:01.306Z,99288.25
2022-08-17T22:33:43.978Z,99290.48
2022-08-17T22:36:24.855Z,99292.21
2022-08-17T22:39:16.942Z,99288.95
2022-08-17T22:41:47.852Z,99288.70
2022-08-17T22:44:31.478Z,99291.13
2022-08-17T22:47:11.105Z,99291.85
2022-08-17T22:49:53.922Z,99287.16
2022-08-17T22:53:16.720Z,99293.95
2022-08-17T22:56:23.396Z,99294.99
2022-08-17T22:59:14.947Z,99297.77
2022-08-17T23:01:44.954Z,99296.02
2022-08-17T23:04:29.800Z,99297.98
2022-08-17T23:06:57.045Z,99297.65
2022-08-17T23:09:23.777Z,99293.30
2022-08-17T23:11:58.045Z,99293.13
2022-08-17T23:14:30.968Z,99292.36
2022-08-17T23:17:00.433Z,99290.11
2022-08-17T23:19:33.423Z,99285.02
2022-08-17T23:22:04.947Z,99286.86
2022-08-17T23:24:38.903Z,99287.36
2022-08-17T23:27:07.391Z,99287.59
2022-08-17T23:29:38.932Z,99288.80
2022-08-17T23:32:07.689Z,99282.83
2022-08-17T23:34:39.741Z,99285.95
2022-08-17T23:37:11.067Z,99287.09
2022-08-17T23:39:46.702Z,99290.82
2022-08-17T23:42:21.197Z,99299.80
2022-08-17T23:44:49.245Z,99296.90
2022-08-17T23:47:16.832Z,99298.73
2022-08-17T23:49:44.198Z,99297.73
2022-08-17T23:52:24.186Z,99303.75
2022-08-17T23:54:54.927Z,99301.71
2022-08-17T23:57:33.054Z,99297.14
